createdAt,value
2023-04-01T00:01:43.667Z,99120.63
2023-04-01T00:04:12.605Z,99123.25
2023-04-01T00:06:41.860Z,99126.34
2023-04-01T00:09:10.512Z,99120.63
2023-04-01T00:11:41.198Z,99126.28
2023-04-01T00:14:10.465Z,99137.94
2023-04-01T00:16:39.603Z,99141.44
2023-04-01T00:19:09.198Z,99142.03
2023-04-01T00:21:38.170Z,99139.22
2023-04-01T00:24:08.392Z,99143.00
2023-04-01T00:26:37.056Z,99135.38
2023-04-01T00:29:09.569Z,99140.63
2023-04-01T00:31:40.385Z,99141.75
2023-04-01T00:34:09.020Z,99145.09
2023-04-01T00:36:37.562Z,99144.13
2023-04-01T00:39:06.153Z,99139.06
2023-04-01T00:41:34.915Z,99140.63
2023-04-01T00:44:25.149Z,99139.75
2023-04-01T00:46:55.707Z,99143.31
2023-04-01T00:49:31.266Z,99150.38
2023-04-01T00:52:04.222Z,99148.69
2023-04-01T00:54:34.677Z,99143.31
2023-04-01T00:57:07.880Z,99151.78
2023-04-01T00:59:44.601Z,99151.06
2023-04-01T01:02:16.001Z,99151.50
2023-04-01T01:04:45.277Z,99165.34
2023-04-01T01:07:27.453Z,99153.06
2023-04-01T01:10:05.991Z,99158.88
2023-04-01T01:12:41.431Z,99155.75
2023-04-01T01:15:19.014Z,99159.13
2023-04-01T01:17:59.252Z,99157.66
2023-04-01T01:21:08.969Z,99170.72
2023-04-01T01:24:14.873Z,99172.97
2023-04-01T01:26:55.068Z,99170.16
2023-04-01T01:29:47.634Z,99165.22
2023-04-01T01:32:44.872Z,99157.72
2023-04-01T01:35:23.959Z,99164.22
2023-04-01T01:37:58.583Z,99167.47
2023-04-01T01:40:29.878Z,99166.63
2023-04-01T01:43:03.208Z,99174.81
2023-04-01T01:45:34.696Z,99169.03
2023-04-01T01:48:07.281Z,99172.13
2023-04-01T01:50:39.124Z,99169.59
2023-04-01T01:53:10.016Z,99173.81
2023-04-01T01:55:41.588Z,99178.06
2023-04-01T01:58:16.007Z,99181.31
2023-04-01T02:00:49.232Z,99177.50
2023-04-01T02:03:20.812Z,99165.09
2023-04-01T02:05:54.157Z,99182.63
2023-04-01T02:08:28.884Z,99182.03
2023-04-01T02:11:03.340Z,99183.00
2023-04-01T02:13:38.667Z,99188.53
2023-04-01T02:16:15.025Z,99195.91
2023-04-01T02:18:48.824Z,99198.56
2023-04-01T02:21:27.444Z,99200.66
2023-04-01T02:23:59.002Z,99200.53
2023-04-01T02:26:29.011Z,99205.78
2023-04-01T02:29:02.096Z,99202.97
2023-04-01T02:31:31.876Z,99213.69
2023-04-01T02:34:02.209Z,99208.91
2023-04-01T02:36:32.530Z,99218.78
2023-04-01T02:39:04.296Z,99220.75
2023-04-01T02:41:55.970Z,99207.03
2023-04-01T02:44:41.946Z,99220.75
2023-04-01T02:47:10.934Z,99218.06
2023-04-01T02:49:45.698Z,99223.50
2023-04-01T02:52:15.852Z,99230.06
2023-04-01T02:54:44.784Z,99224.13
2023-04-01T02:57:13.538Z,99235.44
2023-04-01T02:59:42.114Z,99236.53
2023-04-01T03:02:10.861Z,99235.03
2023-04-01T03:04:39.815Z,99236.59
2023-04-01T03:07:09.532Z,99248.19
2023-04-01T03:09:41.113Z,99251.56
2023-04-01T03:12:10.944Z,99247.06
2023-04-01T03:14:39.567Z,99263.84
2023-04-01T03:17:08.581Z,99270.72
2023-04-01T03:19:37.021Z,99257.78
2023-04-01T03:22:05.630Z,99252.69
2023-04-01T03:24:34.777Z,99272.78
2023-04-01T03:27:05.048Z,99284.28
2023-04-01T03:29:33.578Z,99283.50
2023-04-01T03:32:02.041Z,99281.00
2023-04-01T03:34:30.979Z,99282.78
2023-04-01T03:37:00.496Z,99285.03
2023-04-01T03:39:36.146Z,99286.06
2023-04-01T03:42:07.760Z,99283.06
2023-04-01T03:44:36.822Z,99298.47
2023-04-01T03:47:05.573Z,99287.78
2023-04-01T03:49:35.304Z,99299.38
2023-04-01T03:52:04.173Z,99292.00
2023-04-01T03:54:33.242Z,99315.06
2023-04-01T03:57:02.248Z,99304.94
2023-04-01T03:59:32.493Z,99319.19
2023-04-01T04:02:01.812Z,99330.56
2023-04-01T04:04:31.240Z,99328.19
2023-04-01T04:07:00.600Z,99338.47
2023-04-01T04:09:29.607Z,99335.31
2023-04-01T04:11:58.472Z,99336.69
2023-04-01T04:14:27.412Z,99341.47
2023-04-01T04:16:57.399Z,99354.09
2023-04-01T04:19:26.313Z,99350.53
2023-04-01T04:21:55.869Z,99358.91
2023-04-01T04:24:24.685Z,99357.31
2023-04-01T04:26:54.096Z,99365.63
2023-04-01T04:29:23.997Z,99367.09
2023-04-01T04:31:52.613Z,99364.22
2023-04-01T04:34:25.787Z,99379.03
2023-04-01T04:36:54.647Z,99390.44
2023-04-01T04:39:23.232Z,99387.84
2023-04-01T04:41:51.675Z,99389.06
2023-04-01T04:44:20.330Z,99391.28
2023-04-01T04:46:49.293Z,99395.28
2023-04-01T04:49:18.301Z,99407.25
2023-04-01T04:51:48.384Z,99397.41
2023-04-01T04:54:17.217Z,99403.13
2023-04-01T04:56:45.970Z,99405.63
2023-04-01T04:59:14.787Z,99420.72
2023-04-01T05:01:43.400Z,99418.50
2023-04-01T05:04:12.147Z,99423.00
2023-04-01T05:06:41.082Z,99424.38
2023-04-01T05:09:11.086Z,99433.94
2023-04-01T05:11:39.973Z,99428.63
2023-04-01T05:14:08.815Z,99444.31
2023-04-01T05:16:41.152Z,99443.03
2023-04-01T05:19:12.370Z,99440.00
2023-04-01T05:21:40.779Z,99453.81
2023-04-01T05:24:11.893Z,99462.47
2023-04-01T05:26:40.522Z,99454.03
2023-04-01T05:29:24.219Z,99467.31
2023-04-01T05:31:52.801Z,99468.41
2023-04-01T05:34:21.805Z,99475.00
2023-04-01T05:36:53.318Z,99473.13
2023-04-01T05:39:30.638Z,99477.72
2023-04-01T05:41:59.218Z,99478.13
2023-04-01T05:44:28.008Z,99483.34
2023-04-01T05:46:56.698Z,99487.13
2023-04-01T05:49:27.609Z,99483.47
2023-04-01T05:51:57.662Z,99491.25
2023-04-01T05:54:27.795Z,99497.38
2023-04-01T05:56:56.265Z,99498.00
2023-04-01T05:59:25.151Z,99501.72
2023-04-01T06:01:53.863Z,99511.44
2023-04-01T06:04:22.973Z,99515.28
2023-04-01T06:06:52.636Z,99517.25
2023-04-01T06:09:31.532Z,99509.66
2023-04-01T06:12:51.377Z,99523.81
2023-04-01T06:15:40.339Z,99524.25
2023-04-01T06:18:54.376Z,99531.66
2023-04-01T06:21:58.365Z,99548.31
2023-04-01T06:24:57.677Z,99548.16
2023-04-01T06:27:47.076Z,99554.66
2023-04-01T06:30:36.641Z,99556.81
2023-04-01T06:33:25.848Z,99564.16
2023-04-01T06:36:53.291Z,99553.34
2023-04-01T06:39:47.616Z,99575.22
2023-04-01T06:43:02.122Z,99586.66
2023-04-01T06:45:42.429Z,99582.88
2023-04-01T06:48:37.405Z,99593.34
2023-04-01T06:51:33.538Z,99589.53
2023-04-01T06:54:07.294Z,99600.16
2023-04-01T06:56:38.962Z,99611.88
2023-04-01T06:59:19.634Z,99611.97
2023-04-01T07:02:00.812Z,99611.44
2023-04-01T07:04:35.524Z,99622.13
2023-04-01T07:07:18.153Z,99624.16
2023-04-01T07:09:53.628Z,99628.34
2023-04-01T07:12:30.361Z,99619.75
2023-04-01T07:15:06.236Z,99634.69
2023-04-01T07:17:43.034Z,99637.81
2023-04-01T07:20:22.091Z,99643.16
2023-04-01T07:22:53.786Z,99642.63
2023-04-01T07:25:26.995Z,99656.06
2023-04-01T07:27:58.632Z,99657.13
2023-04-01T07:30:36.138Z,99660.88
2023-04-01T07:33:13.716Z,99667.97
2023-04-01T07:35:59.840Z,99674.09
2023-04-01T07:38:42.677Z,99677.91
2023-04-01T07:41:19.745Z,99692.91
2023-04-01T07:44:02.223Z,99686.94
2023-04-01T07:46:53.093Z,99688.47
2023-04-01T07:49:32.075Z,99679.13
2023-04-01T07:52:08.743Z,99688.22
2023-04-01T07:54:47.570Z,99705.69
2023-04-01T07:57:26.076Z,99699.66
2023-04-01T08:00:05.382Z,99714.59
2023-04-01T08:02:53.882Z,99705.34
2023-04-01T08:05:28.985Z,99727.94
2023-04-01T08:08:10.566Z,99722.94
2023-04-01T08:10:48.628Z,99715.91
2023-04-01T08:13:29.593Z,99736.59
2023-04-01T08:16:08.404Z,99739.47
2023-04-01T08:18:53.279Z,99734.41
2023-04-01T08:21:27.169Z,99745.09
2023-04-01T08:23:59.575Z,99746.25
2023-04-01T08:26:37.134Z,99750.41
2023-04-01T08:29:13.123Z,99749.72
2023-04-01T08:31:51.162Z,99738.06
2023-04-01T08:34:27.297Z,99752.19
2023-04-01T08:37:05.206Z,99759.22
2023-04-01T08:39:39.992Z,99759.56
2023-04-01T08:42:52.630Z,99777.56
2023-04-01T08:45:56.108Z,99767.97
2023-04-01T08:49:01.437Z,99778.50
2023-04-01T08:52:38.944Z,99790.25
2023-04-01T08:55:41.236Z,99779.69
2023-04-01T08:58:54.905Z,99798.03
2023-04-01T09:01:40.777Z,99791.19
2023-04-01T09:04:37.014Z,99799.41
2023-04-01T09:07:13.274Z,99807.78
2023-04-01T09:10:09.136Z,99803.25
2023-04-01T09:13:03.695Z,99818.25
2023-04-01T09:16:04.771Z,99822.34
2023-04-01T09:19:13.410Z,99823.38
2023-04-01T09:22:20.847Z,99819.97
2023-04-01T09:25:56.415Z,99824.44
2023-04-01T09:28:36.472Z,99821.16
2023-04-01T09:31:39.493Z,99823.63
2023-04-01T09:34:42.527Z,99834.47
2023-04-01T09:37:29.653Z,99815.31
2023-04-01T09:40:26.492Z,99832.59
2023-04-01T09:43:32.576Z,99838.84
2023-04-01T09:46:21.600Z,99841.19
2023-04-01T09:49:25.254Z,99848.38
2023-04-01T09:52:21.081Z,99856.59
2023-04-01T09:55:17.680Z,99860.78
2023-04-01T09:58:43.480Z,99847.81
2023-04-01T10:01:45.271Z,99847.22
2023-04-01T10:04:55.805Z,99867.59
2023-04-01T10:07:54.847Z,99865.47
2023-04-01T10:11:07.260Z,99867.22
2023-04-01T10:14:31.400Z,99876.94
2023-04-01T10:17:43.745Z,99873.66
2023-04-01T10:21:00.465Z,99873.66
2023-04-01T10:24:02.432Z,99884.78
2023-04-01T10:26:52.815Z,99890.03
2023-04-01T10:29:56.526Z,99891.34
2023-04-01T10:33:07.189Z,99889.38
2023-04-01T10:36:45.047Z,99898.44
2023-04-01T10:40:08.420Z,99914.28
2023-04-01T10:43:43.960Z,99908.97
2023-04-01T10:47:08.358Z,99892.59
2023-04-01T10:50:18.646Z,99899.72
2023-04-01T10:53:28.722Z,99899.41
2023-04-01T10:56:38.650Z,99898.91
2023-04-01T11:00:09.857Z,99908.91
2023-04-01T11:03:37.753Z,99908.22
2023-04-01T11:06:58.193Z,99917.81
2023-04-01T11:10:28.460Z,99911.06
2023-04-01T11:13:49.987Z,99923.47
2023-04-01T11:17:13.942Z,99917.44
2023-04-01T11:20:43.952Z,99924.84
2023-04-01T11:24:04.319Z,99927.00
2023-04-01T11:26:53.360Z,99937.91
2023-04-01T11:29:56.997Z,99936.22
2023-04-01T11:33:07.397Z,99940.41
2023-04-01T11:36:09.159Z,99963.25
2023-04-01T11:39:21.995Z,99950.38
2023-04-01T11:42:03.674Z,99956.06
2023-04-01T11:44:38.163Z,99951.75
2023-04-01T11:47:37.636Z,99965.84
2023-04-01T11:50:25.248Z,99971.84
2023-04-01T11:53:32.222Z,99977.75
2023-04-01T11:56:15.509Z,99988.91
2023-04-01T11:59:23.681Z,99998.81
2023-04-01T12:02:09.459Z,100006.09
2023-04-01T12:05:00.722Z,100008.22
2023-04-01T12:07:56.880Z,100006.69
2023-04-01T12:10:46.186Z,100007.50
2023-04-01T12:13:39.451Z,100010.97
2023-04-01T12:16:52.767Z,100009.38
2023-04-01T12:19:38.036Z,100015.06
2023-04-01T12:22:37.016Z,100022.56
2023-04-01T12:25:26.396Z,100021.19
2023-04-01T12:28:18.739Z,100030.69
2023-04-01T12:31:01.429Z,100023.44
2023-04-01T12:34:03.224Z,100032.13
2023-04-01T12:36:52.609Z,100037.31
2023-04-01T12:39:53.574Z,100037.38
2023-04-01T12:42:53.311Z,100046.22
2023-04-01T12:45:34.889Z,100053.53
2023-04-01T12:49:17.348Z,100066.13
2023-04-01T12:52:03.498Z,100057.56
2023-04-01T12:55:32.681Z,100074.81
2023-04-01T12:58:53.714Z,100059.44
2023-04-01T13:02:04.411Z,100080.38
2023-04-01T13:05:15.138Z,100068.03
2023-04-01T13:08:01.209Z,100081.69
2023-04-01T13:10:40.837Z,100089.28
2023-04-01T13:13:48.664Z,100091.09
2023-04-01T13:16:21.911Z,100097.16
2023-04-01T13:19:03.624Z,100105.81
2023-04-01T13:21:44.959Z,100113.72
2023-04-01T13:24:33.006Z,100114.19
2023-04-01T13:27:09.605Z,100119.38
2023-04-01T13:29:43.022Z,100124.41
2023-04-01T13:32:43.361Z,100125.84
2023-04-01T13:35:35.067Z,100133.41
2023-04-01T13:38:29.529Z,100129.75
2023-04-01T13:41:20.531Z,100135.06
2023-04-01T13:44:02.183Z,100129.34
2023-04-01T13:47:18.797Z,100136.16
2023-04-01T13:51:00.403Z,100149.09
2023-04-01T13:54:19.903Z,100156.72
2023-04-01T13:57:04.948Z,100162.03
2023-04-01T14:00:14.126Z,100156.09
2023-04-01T14:03:34.735Z,100178.63
2023-04-01T14:06:18.893Z,100165.56
2023-04-01T14:09:32.096Z,100174.25
2023-04-01T14:12:14.148Z,100183.06
2023-04-01T14:15:12.632Z,100188.97
2023-04-01T14:17:54.661Z,100193.94
2023-04-01T14:20:48.628Z,100194.84
2023-04-01T14:23:59.944Z,100209.28
2023-04-01T14:27:30.013Z,100215.50
2023-04-01T14:30:17.173Z,100215.19
2023-04-01T14:32:54.742Z,100215.91
2023-04-01T14:35:40.524Z,100229.59
2023-04-01T14:38:54.983Z,100229.84
2023-04-01T14:41:37.721Z,100228.44
2023-04-01T14:45:05.859Z,100240.72
2023-04-01T14:47:50.728Z,100251.47
2023-04-01T14:50:23.740Z,100249.75
2023-04-01T14:53:01.487Z,100252.97
2023-04-01T14:55:36.827Z,100264.94
2023-04-01T14:58:14.924Z,100262.75
2023-04-01T15:00:57.017Z,100266.03
2023-04-01T15:03:32.313Z,100267.28
2023-04-01T15:06:19.417Z,100273.50
2023-04-01T15:09:00.783Z,100278.84
2023-04-01T15:11:46.087Z,100283.47
2023-04-01T15:14:44.483Z,100290.00
2023-04-01T15:18:03.499Z,100297.44
2023-04-01T15:20:59.285Z,100301.75
2023-04-01T15:23:47.224Z,100307.75
2023-04-01T15:27:00.691Z,100318.69
2023-04-01T15:30:11.619Z,100319.28
2023-04-01T15:32:59.556Z,100330.50
2023-04-01T15:35:46.779Z,100332.41
2023-04-01T15:38:33.311Z,100337.06
2023-04-01T15:41:16.801Z,100347.59
2023-04-01T15:43:50.208Z,100360.59
2023-04-01T15:46:48.986Z,100360.09
2023-04-01T15:49:38.600Z,100370.00
2023-04-01T15:52:18.624Z,100370.97
2023-04-01T15:55:21.528Z,100379.56
2023-04-01T15:58:07.746Z,100390.97
2023-04-01T16:00:52.421Z,100393.06
2023-04-01T16:03:33.300Z,100388.19
2023-04-01T16:06:46.174Z,100406.94
2023-04-01T16:09:44.392Z,100408.94
2023-04-01T16:12:22.956Z,100422.84
2023-04-01T16:15:09.653Z,100422.63
2023-04-01T16:18:41.135Z,100434.47
2023-04-01T16:21:16.478Z,100441.31
2023-04-01T16:23:52.228Z,100446.63
2023-04-01T16:26:28.906Z,100447.78
2023-04-01T16:29:09.085Z,100450.56
2023-04-01T16:31:46.738Z,100456.06
2023-04-01T16:34:23.544Z,100472.09
2023-04-01T16:36:58.050Z,100469.28
2023-04-01T16:39:41.853Z,100468.63
2023-04-01T16:42:37.418Z,100470.25
2023-04-01T16:45:27.485Z,100490.97
2023-04-01T16:48:00.521Z,100484.31
2023-04-01T16:50:53.757Z,100512.44
2023-04-01T16:53:37.024Z,100500.75
2023-04-01T16:56:19.297Z,100509.47
2023-04-01T16:59:04.623Z,100508.78
2023-04-01T17:01:45.942Z,100526.53
2023-04-01T17:04:28.001Z,100523.38
2023-04-01T17:07:12.608Z,100530.13
2023-04-01T17:10:20.598Z,100544.97
2023-04-01T17:13:04.140Z,100542.22
2023-04-01T17:15:44.759Z,100554.66
2023-04-01T17:18:22.540Z,100550.75
2023-04-01T17:20:58.966Z,100558.31
2023-04-01T17:23:34.762Z,100575.59
2023-04-01T17:26:33.362Z,100581.88
2023-04-01T17:29:13.061Z,100586.88
2023-04-01T17:31:51.670Z,100591.91
2023-04-01T17:34:48.956Z,100603.72
2023-04-01T17:37:37.538Z,100607.88
2023-04-01T17:40:33.466Z,100602.50
2023-04-01T17:43:12.627Z,100617.81
2023-04-01T17:45:52.006Z,100624.44
2023-04-01T17:48:35.946Z,100632.59
2023-04-01T17:51:25.610Z,100636.09
2023-04-01T17:54:07.650Z,100643.66
2023-04-01T17:56:51.664Z,100646.69
2023-04-01T17:59:34.468Z,100650.28
2023-04-01T18:02:19.265Z,100660.41
2023-04-01T18:05:19.029Z,100680.06
2023-04-01T18:08:12.045Z,100673.03
2023-04-01T18:10:54.871Z,100686.47
2023-04-01T18:14:14.466Z,100682.63
2023-04-01T18:17:01.694Z,100696.72
2023-04-01T18:19:45.586Z,100710.22
2023-04-01T18:22:24.320Z,100725.47
2023-04-01T18:25:04.041Z,100729.97
2023-04-01T18:27:38.795Z,100724.72
2023-04-01T18:30:20.535Z,100739.84
2023-04-01T18:32:55.588Z,100741.66
2023-04-01T18:35:36.693Z,100758.97
2023-04-01T18:38:14.813Z,100763.97
2023-04-01T18:40:52.411Z,100767.63
2023-04-01T18:43:39.790Z,100770.84
2023-04-01T18:46:27.622Z,100775.78
2023-04-01T18:49:16.066Z,100787.50
2023-04-01T18:51:57.145Z,100806.72
2023-04-01T18:54:33.433Z,100807.13
2023-04-01T18:57:09.948Z,100803.16
2023-04-01T18:59:44.875Z,100815.91
2023-04-01T19:02:40.693Z,100815.88
2023-04-01T19:05:22.199Z,100814.78
2023-04-01T19:07:56.185Z,100828.28
2023-04-01T19:10:40.160Z,100833.28
2023-04-01T19:13:22.644Z,100844.75
2023-04-01T19:16:03.670Z,100857.13
2023-04-01T19:19:00.824Z,100862.16
2023-04-01T19:21:50.082Z,100864.84
2023-04-01T19:24:54.369Z,100874.50
2023-04-01T19:27:36.279Z,100873.22
2023-04-01T19:30:35.419Z,100874.94
2023-04-01T19:33:33.386Z,100887.66
2023-04-01T19:36:17.272Z,100893.34
2023-04-01T19:39:10.058Z,100898.97
2023-04-01T19:41:48.974Z,100916.94
2023-04-01T19:44:40.241Z,100915.88
2023-04-01T19:47:22.783Z,100915.69
2023-04-01T19:50:11.973Z,100936.28
2023-04-01T19:52:56.364Z,100943.47
2023-04-01T19:56:16.875Z,100944.03
2023-04-01T19:59:00.992Z,100945.69
2023-04-01T20:01:45.668Z,100959.75
2023-04-01T20:04:25.759Z,100957.06
2023-04-01T20:07:00.291Z,100967.66
2023-04-01T20:10:00.482Z,100966.56
2023-04-01T20:12:51.295Z,100976.91
2023-04-01T20:15:34.082Z,100986.31
2023-04-01T20:18:09.826Z,100999.31
2023-04-01T20:20:40.860Z,100997.75
2023-04-01T20:23:34.434Z,101002.22
2023-04-01T20:26:11.106Z,101006.78
2023-04-01T20:28:54.215Z,101009.94
2023-04-01T20:31:33.772Z,101012.53
2023-04-01T20:37:48.728Z,101031.44
2023-04-01T20:40:36.732Z,101045.69
2023-04-01T20:43:50.914Z,101039.63
2023-04-01T20:46:44.584Z,101056.16
2023-04-01T20:49:49.704Z,101061.28
2023-04-01T20:52:39.955Z,101071.50
2023-04-01T20:55:33.296Z,101081.03
2023-04-01T20:58:15.522Z,101081.03
2023-04-01T21:01:00.086Z,101077.84
2023-04-01T21:03:46.477Z,101090.81
2023-04-01T21:06:57.673Z,101088.34
2023-04-01T21:09:57.719Z,101100.41
2023-04-01T21:12:38.522Z,101106.00
2023-04-01T21:15:32.547Z,101110.13
2023-04-01T21:18:20.173Z,101111.72
2023-04-01T21:21:18.340Z,101120.75
2023-04-01T21:24:05.051Z,101122.69
2023-04-01T21:26:51.712Z,101151.63
2023-04-01T21:29:53.924Z,101129.72
2023-04-01T21:32:44.344Z,101140.69
2023-04-01T21:35:33.067Z,101149.44
2023-04-01T21:38:16.331Z,101144.66
2023-04-01T21:41:26.718Z,101162.97
2023-04-01T21:44:36.638Z,101162.91
2023-04-01T21:48:09.130Z,101174.91
2023-04-01T21:51:31.119Z,101168.50
2023-04-01T21:54:24.264Z,101186.97
2023-04-01T21:57:48.676Z,101188.97
2023-04-01T22:00:23.384Z,101207.47
2023-04-01T22:03:41.591Z,101203.19
2023-04-01T22:06:24.817Z,101201.13
2023-04-01T22:09:12.771Z,101208.34
2023-04-01T22:11:54.667Z,101215.66
2023-04-01T22:14:32.675Z,101225.81
2023-04-01T22:17:05.767Z,101233.91
2023-04-01T22:19:47.843Z,101222.47
2023-04-01T22:22:24.865Z,101233.84
2023-04-01T22:25:08.479Z,101240.19
2023-04-01T22:27:48.012Z,101243.38
2023-04-01T22:30:24.900Z,101246.53
2023-04-01T22:33:01.977Z,101255.81
2023-04-01T22:35:42.708Z,101261.94
2023-04-01T22:38:29.430Z,101269.13
2023-04-01T22:41:10.260Z,101269.28
2023-04-01T22:43:42.616Z,101276.88
2023-04-01T22:47:00.465Z,101289.06
2023-04-01T22:49:40.156Z,101290.97
2023-04-01T22:52:21.474Z,101298.50
2023-04-01T22:54:59.079Z,101299.63
2023-04-01T22:57:43.846Z,101302.88
2023-04-01T23:00:21.415Z,101306.66
2023-04-01T23:03:06.991Z,101321.78
2023-04-01T23:05:50.925Z,101323.81
2023-04-01T23:09:06.042Z,101324.44
2023-04-01T23:11:45.531Z,101339.53
2023-04-01T23:14:49.077Z,101329.66
2023-04-01T23:17:42.337Z,101335.31
2023-04-01T23:20:44.916Z,101344.94
2023-04-01T23:23:28.854Z,101348.81
2023-04-01T23:26:07.868Z,101344.16
2023-04-01T23:28:49.446Z,101355.56
2023-04-01T23:31:38.048Z,101369.13
2023-04-01T23:34:30.248Z,101370.56
2023-04-01T23:37:04.258Z,101365.91
2023-04-01T23:39:36.842Z,101371.38
2023-04-01T23:42:10.628Z,101378.84
2023-04-01T23:44:41.465Z,101379.00
2023-04-01T23:47:20.029Z,101385.38
2023-04-01T23:49:52.974Z,101388.91
2023-04-01T23:52:26.478Z,101405.78
2023-04-01T23:55:00.943Z,101408.94
2023-04-01T23:57:34.888Z,101402.72
